Flight Track Log - Related Links

Times and Time Zones

All times are in EDT time to prevent confusion due to time zone crossing. See the N658DS flight status page for this flight to view local times or setup timezone preferences in your user account.


Time Position Orientation Groundspeed Altitude Reporting Facility
EDT Latitude Longitude Course Direction KTS MPH feet Rate Location/Type
Fri 08:30:00 PM 26.1524 -81.7756 North  Level Estimated
Fri 08:31:00 PM 26.1524 -81.7756 North  Level Estimated
Fri 08:32:00 PM 26.1524 -81.7756 North  Level Estimated
Fri 08:33:00 PM 26.1524 -81.7756 North  Level Estimated
Fri 08:34:00 PM 26.1524 -81.7756 321° Northwest  Level Estimated
Fri 08:35:00 PM 26.1524 -81.7756 336° Northwest  Level Estimated
Fri 08:36:00 PM 26.1524 -81.7756 336° Northwest  Level Estimated
Fri 08:37:00 PM 26.1524 -81.7756 336° Northwest  Level Estimated
Fri 08:38:00 PM 26.1524 -81.7756 336° Northwest  Level Estimated
Fri 08:39:00 PM 26.1524 -81.7756 336° Northwest  Level Estimated
Fri 08:40:00 PM 26.1524 -81.7756 336° Northwest  Level Estimated
Fri 08:41:00 PM 26.1524 -81.7756 336° Northwest  Level Estimated
Fri 08:42:00 PM 26.1524 -81.7756 336° Northwest  Level Estimated
Fri 08:43:00 PM 26.1524 -81.7756 336° Northwest  Level Estimated
Fri 08:44:00 PM 26.1524 -81.7756 336° Northwest  Level Estimated
Fri 08:45:00 PM 26.1524 -81.7756 336° Northwest  Level Estimated
Fri 08:46:00 PM 26.1524 -81.7756 336° Northwest  Level Estimated
Fri 08:47:00 PM 26.1524 -81.7756 336° Northwest  Level Estimated
Fri 08:48:00 PM 26.1524 -81.7756 336° Northwest  Level Estimated
Fri 08:49:00 PM 26.1524 -81.7756 336° Northwest  Level Estimated
Fri 08:50:00 PM 26.1524 -81.7756 336° Northwest  Level Estimated
Fri 08:51:00 PM 26.1524 -81.7756 336° Northwest  Level Estimated
Fri 08:52:00 PM 26.1524 -81.7756 323° Northwest  Level Estimated
Fri 08:53:00 PM 26.1524 -81.7756 333° Northwest  Level Estimated
Fri 08:53:24 PM 26.9500 -82.3000 333° Northwest 127 146 6,000  Level Tampa TRACON
Fri 08:54:00 PM 26.1524 -81.7756 333° Northwest  Level Estimated
Fri 08:54:43 PM 26.9833 -82.3167 336° Northwest 129 148 6,000  Level Tampa TRACON
Fri 08:55:00 PM 26.1524 -81.7756 333° Northwest  Level Estimated
Fri 08:55:48 PM 27.0167 -82.3333 336° Northwest 127 146 6,000  Level Tampa TRACON
Fri 08:56:00 PM 26.1524 -81.7756 333° Northwest  Level Estimated
Fri 08:56:43 PM 27.0500 -82.3500 336° Northwest 133 153 6,000  Level Tampa TRACON
Fri 08:57:00 PM 26.1524 -81.7756 333° Northwest  Level Estimated
Fri 08:57:49 PM 27.0833 -82.3500 360° North 137 158 5,200  Level Tampa TRACON
Fri 08:58:00 PM 26.1524 -81.7756 333° Northwest  Level Estimated
Fri 08:58:49 PM 27.1167 -82.3667 336° Northwest 132 152 4,500  Level Tampa TRACON
Fri 08:59:43 PM 27.1500 -82.3667 360° North 132 152 3,800 -737 Descending Tampa TRACON
Fri 09:00:43 PM 27.1833 -82.3333 42° Northeast 129 148 3,100 -400 Descending Tampa TRACON
Fri 09:01:43 PM 27.2167 -82.3167 24° Northeast 130 150 3,000 -53 Descending Tampa TRACON
Fri 09:02:37 PM 27.2500 -82.3167 360° North 124 143 3,000 -105 Level Tampa TRACON
Fri 09:03:37 PM 27.2833 -82.3333 336° Northwest 119 137 2,800 -474 Descending Tampa TRACON
Fri 09:04:31 PM 27.2833 -82.3667 270° West 121 139 2,100 -435 Descending Tampa TRACON
Fri 09:05:55 PM 27.2833 -82.4167 270° West 101 116 1,800 -136 Descending Tampa TRACON
Fri 09:06:43 PM 27.2833 -82.4333 270° West 92 106 1,800 -53 Level Tampa TRACON
Fri 09:07:49 PM 27.3000 -82.4500 318° Northwest 108 124 1,700  Descending Tampa TRACON
Fri 09:08:49 PM 27.3167 -82.4667 318° Northwest 100 115 1,800 -150 Climbing Tampa TRACON
Fri 09:09:49 PM 27.3333 -82.5000 299° West 94 108 1,400 -500 Descending Tampa TRACON
Fri 09:10:37 PM 27.3500 -82.5167 318° Northwest 93 107 900 -526 Descending Tampa TRACON
Fri 09:11:43 PM 27.3667 -82.5333 318° Northwest 84 97 400 -161 Descending Tampa TRACON
Fri 09:13:00 PM 27.3955 -82.5492 171° South  Level FlightAware Approximate
Fri 09:13:43 PM 27.4000 -82.5667 171° South 72 83 400  Level Tampa TRACON
Fri 09:14:37 PM 27.4000 -82.5833 270° West 77 89 1,000 737 Climbing Tampa TRACON
Fri 09:15:37 PM 27.3833 -82.6000 222° Southwest 73 84 1,800 789 Climbing Tampa TRACON
Fri 09:16:31 PM 27.3667 -82.6167 222° Southwest 76 87 2,500 661 Climbing Tampa TRACON
Fri 09:17:26 PM 27.3500 -82.6167 180° South 93 107 3,000 650 Climbing Tampa TRACON
Fri 09:18:31 PM 27.3333 -82.6000 138° Southeast 98 113 3,800 684 Climbing Tampa TRACON
Fri 09:19:20 PM 27.3000 -82.5833 156° South 97 112 4,300 574 Climbing Tampa TRACON
Fri 09:20:26 PM 27.2833 -82.5667 138° Southeast 100 115 4,900 381 Climbing Tampa TRACON
Fri 09:21:26 PM 27.2500 -82.5667 180° South 115 132 5,100 100 Climbing Tampa TRACON
Fri 09:22:26 PM 27.2167 -82.5333 138° Southeast 123 142 5,100  Level Tampa TRACON
Fri 09:24:00 PM 27.1666 -82.5023 166° South  Level FlightAware Approximate
Fri 09:31:00 PM 26.9357 -82.4386 168° South  Level FlightAware Approximate
Fri 09:32:00 PM 26.9025 -82.4307 168° South  Level FlightAware Approximate
Fri 09:33:00 PM 26.8693 -82.4228 168° South  Level FlightAware Approximate
Fri 09:34:00 PM 26.8361 -82.4149 168° South  Level FlightAware Approximate
Fri 09:35:00 PM 26.8029 -82.4070 168° South  Level FlightAware Approximate
Fri 09:36:00 PM 26.7696 -82.3990 168° South  Level FlightAware Approximate
Fri 09:37:00 PM 26.7364 -82.3912 168° South  Level FlightAware Approximate
Fri 09:38:00 PM 26.7032 -82.3832 168° South  Level FlightAware Approximate
Fri 09:39:00 PM 26.6700 -82.3754 168° South  Level FlightAware Approximate
Fri 09:40:00 PM 26.6367 -82.3675 168° South  Level FlightAware Approximate
Fri 09:41:00 PM 26.6126 -82.3417 133° Southeast  Level FlightAware Approximate
Fri 09:42:00 PM 26.5894 -82.3139 133° Southeast  Level FlightAware Approximate
Fri 09:43:00 PM 26.5663 -82.2860 133° Southeast  Level FlightAware Approximate
Fri 09:44:00 PM 26.5432 -82.2582 133° Southeast  Level FlightAware Approximate
Fri 09:45:00 PM 26.5200 -82.2305 133° Southeast  Level FlightAware Approximate
Fri 09:46:00 PM 26.4969 -82.2027 133° Southeast  Level FlightAware Approximate
Fri 09:47:00 PM 26.4737 -82.1749 133° Southeast  Level FlightAware Approximate
Fri 09:48:00 PM 26.4506 -82.1471 133° Southeast  Level FlightAware Approximate
Fri 09:49:00 PM 26.4274 -82.1194 133° Southeast  Level FlightAware Approximate
Fri 09:50:00 PM 26.4042 -82.0917 133° Southeast  Level FlightAware Approximate

Login

Don't have an account? Register now (free) for customized features, flight alerts, and more!